createdAt,value
2019-05-26T00:00:34.930Z,15.13
2019-05-26T00:03:08.580Z,14.71
2019-05-26T00:05:41.047Z,14.35
2019-05-26T00:08:13.315Z,13.97
2019-05-26T00:10:45.803Z,13.65
2019-05-26T00:13:18.271Z,13.34
2019-05-26T00:15:50.965Z,14.39
2019-05-26T00:18:23.340Z,16.30
2019-05-26T00:20:56.120Z,17.84
2019-05-26T00:23:29.681Z,17.96
2019-05-26T00:26:02.241Z,17.31
2019-05-26T00:28:34.785Z,16.72
2019-05-26T00:31:07.450Z,16.24
2019-05-26T00:33:40.075Z,15.82
2019-05-26T00:36:12.695Z,15.40
2019-05-26T00:38:45.175Z,15.06
2019-05-26T00:41:17.820Z,14.72
2019-05-26T00:43:50.524Z,14.38
2019-05-26T00:46:23.055Z,14.04
2019-05-26T00:48:55.580Z,15.14
2019-05-26T00:51:28.483Z,17.17
2019-05-26T00:54:01.093Z,17.54
2019-05-26T00:56:33.710Z,16.95
2019-05-26T00:59:06.630Z,16.43
2019-05-26T01:01:39.226Z,15.99
2019-05-26T01:04:11.825Z,15.62
2019-05-26T01:06:44.295Z,15.25
2019-05-26T01:09:17.520Z,14.94
2019-05-26T01:11:51.474Z,14.62
2019-05-26T01:14:24.008Z,14.32
2019-05-26T01:16:57.975Z,14.06
2019-05-26T01:19:32.010Z,15.23
2019-05-26T01:22:06.130Z,17.07
2019-05-26T01:24:39.985Z,17.42
2019-05-26T01:27:12.715Z,16.88
2019-05-26T01:29:45.309Z,16.35
2019-05-26T01:32:17.730Z,15.94
2019-05-26T01:34:50.168Z,15.55
2019-05-26T01:37:22.771Z,15.21
2019-05-26T01:39:55.665Z,14.89
2019-05-26T01:42:28.236Z,14.59
2019-05-26T01:45:00.757Z,14.29
2019-05-26T01:47:34.645Z,14.01
2019-05-26T01:50:08.539Z,15.09
2019-05-26T01:52:41.118Z,16.96
2019-05-26T01:55:13.544Z,17.41
2019-05-26T01:57:46.375Z,16.91
2019-05-26T02:00:19.005Z,16.41
2019-05-26T02:02:51.815Z,16.01
2019-05-26T02:05:24.193Z,15.66
2019-05-26T02:07:56.935Z,15.33
2019-05-26T02:10:29.709Z,15.00
2019-05-26T02:13:02.135Z,14.72
2019-05-26T02:15:34.748Z,14.42
2019-05-26T02:18:07.863Z,15.54
2019-05-26T02:20:40.425Z,17.41
2019-05-26T02:23:13.165Z,17.85
2019-05-26T02:25:45.586Z,17.27
2019-05-26T02:28:17.990Z,16.76
2019-05-26T02:30:50.432Z,16.35
2019-05-26T02:33:22.921Z,15.97
2019-05-26T02:35:55.386Z,15.64
2019-05-26T02:38:27.851Z,15.30
2019-05-26T02:41:00.316Z,15.00
2019-05-26T02:43:33.210Z,14.72
2019-05-26T02:46:06.235Z,14.45
2019-05-26T02:48:38.755Z,15.52
2019-05-26T02:51:11.136Z,17.37
2019-05-26T02:53:43.601Z,17.81
2019-05-26T02:56:16.283Z,17.29
2019-05-26T02:58:48.850Z,16.75
2019-05-26T03:01:21.765Z,16.34
2019-05-26T03:03:55.056Z,15.99
2019-05-26T03:06:29.690Z,15.68
2019-05-26T03:09:21.172Z,15.35
2019-05-26T03:11:41.057Z,15.06
2019-05-26T03:14:14.614Z,14.78
2019-05-26T03:16:48.672Z,14.52
2019-05-26T03:19:21.380Z,15.64
2019-05-26T03:21:56.749Z,17.42
2019-05-26T03:24:30.932Z,17.76
2019-05-26T03:27:03.392Z,17.27
2019-05-26T03:29:35.905Z,16.79
2019-05-26T03:32:08.593Z,16.43
2019-05-26T03:34:41.281Z,16.09
2019-05-26T03:37:13.796Z,15.78
2019-05-26T03:39:46.712Z,15.47
2019-05-26T03:42:19.276Z,15.20
2019-05-26T03:44:51.735Z,14.93
2019-05-26T03:47:24.141Z,15.96
2019-05-26T03:49:56.757Z,17.88
2019-05-26T03:52:29.365Z,18.28
2019-05-26T03:55:02.106Z,17.78
2019-05-26T03:57:35.163Z,17.31
2019-05-26T04:00:09.685Z,16.93
2019-05-26T04:02:42.166Z,16.59
2019-05-26T04:05:15.710Z,16.26
2019-05-26T04:07:48.092Z,15.97
2019-05-26T04:10:20.807Z,15.69
2019-05-26T04:12:53.141Z,15.41
2019-05-26T04:15:26.331Z,15.20
2019-05-26T04:17:58.746Z,14.96
2019-05-26T04:20:31.352Z,16.01
2019-05-26T04:23:04.201Z,17.97
2019-05-26T04:25:37.011Z,18.44
2019-05-26T04:28:09.565Z,17.93
2019-05-26T04:30:41.950Z,17.45
2019-05-26T04:33:14.610Z,17.13
2019-05-26T04:35:47.027Z,16.82
2019-05-26T04:38:19.465Z,16.54
2019-05-26T04:40:51.860Z,16.28
2019-05-26T04:43:24.401Z,16.01
2019-05-26T04:45:56.796Z,15.76
2019-05-26T04:48:29.354Z,15.54
2019-05-26T04:51:02.727Z,15.40
2019-05-26T04:53:35.712Z,15.24
2019-05-26T04:56:08.145Z,16.37
2019-05-26T04:58:40.672Z,18.47
2019-05-26T05:01:13.076Z,19.00
2019-05-26T05:03:45.516Z,18.51
2019-05-26T05:06:17.980Z,18.13
2019-05-26T05:08:50.706Z,17.85
2019-05-26T05:11:23.285Z,17.64
2019-05-26T05:13:55.815Z,17.42
2019-05-26T05:16:28.590Z,17.20
2019-05-26T05:19:00.989Z,17.03
2019-05-26T05:21:33.535Z,16.86
2019-05-26T05:24:06.010Z,16.72
2019-05-26T05:26:38.635Z,16.59
2019-05-26T05:29:11.063Z,16.55
2019-05-26T05:31:43.621Z,16.62
2019-05-26T05:34:16.131Z,16.66
2019-05-26T05:36:48.754Z,16.62
2019-05-26T05:39:21.275Z,16.55
2019-05-26T05:41:53.866Z,16.51
2019-05-26T05:44:26.560Z,16.43
2019-05-26T05:46:59.077Z,16.38
2019-05-26T05:49:31.489Z,16.38
2019-05-26T05:52:05.430Z,16.33
2019-05-26T05:54:38.094Z,16.34
2019-05-26T05:57:10.750Z,16.30
2019-05-26T05:59:43.110Z,16.27
2019-05-26T06:02:15.518Z,16.34
2019-05-26T06:04:48.080Z,16.43
2019-05-26T06:07:20.905Z,16.52
2019-05-26T06:09:54.135Z,16.50
2019-05-26T06:12:26.625Z,16.51
2019-05-26T06:14:59.090Z,16.55
2019-05-26T06:17:31.890Z,16.62
2019-05-26T06:20:06.132Z,16.68
2019-05-26T06:22:38.770Z,16.75
2019-05-26T06:25:11.575Z,16.78
2019-05-26T06:27:44.292Z,16.82
2019-05-26T06:30:17.400Z,16.89
2019-05-26T06:32:50.030Z,17.00
2019-05-26T06:35:22.580Z,17.06
2019-05-26T06:37:55.140Z,17.13
2019-05-26T06:40:27.673Z,17.23
2019-05-26T06:43:00.491Z,17.37
2019-05-26T06:45:34.014Z,17.55
2019-05-26T06:48:06.575Z,17.69
2019-05-26T06:50:39.045Z,17.81
2019-05-26T06:53:11.745Z,17.96
2019-05-26T06:55:44.116Z,18.13
2019-05-26T06:58:16.860Z,18.31
2019-05-26T07:00:49.590Z,18.47
2019-05-26T07:03:22.278Z,18.61
2019-05-26T07:05:55.125Z,18.81
2019-05-26T07:08:27.875Z,18.86
2019-05-26T07:11:00.751Z,19.05
2019-05-26T07:13:33.255Z,19.25
2019-05-26T07:16:06.625Z,19.34
2019-05-26T07:18:39.082Z,19.46
2019-05-26T07:21:11.850Z,19.55
2019-05-26T07:23:44.310Z,19.64
2019-05-26T07:26:16.815Z,19.74
2019-05-26T07:28:49.745Z,19.84
2019-05-26T07:31:22.733Z,19.95
2019-05-26T07:33:55.367Z,19.99
2019-05-26T07:36:27.999Z,20.08
2019-05-26T07:39:00.580Z,20.16
2019-05-26T07:41:33.290Z,20.27
2019-05-26T07:44:05.966Z,20.36
2019-05-26T07:46:38.515Z,20.46
2019-05-26T07:49:10.895Z,20.54
2019-05-26T07:51:44.750Z,20.68
2019-05-26T07:54:25.716Z,20.77
2019-05-26T07:56:51.716Z,20.77
2019-05-26T07:59:24.106Z,20.79
2019-05-26T08:01:56.740Z,20.88
2019-05-26T08:04:29.440Z,20.96
2019-05-26T08:07:01.898Z,21.03
2019-05-26T08:09:34.492Z,21.15
2019-05-26T08:12:07.495Z,21.22
2019-05-26T08:14:39.905Z,21.33
2019-05-26T08:17:12.586Z,21.36
2019-05-26T08:19:45.110Z,21.32
2019-05-26T08:22:17.655Z,21.25
2019-05-26T08:24:50.412Z,21.22
2019-05-26T08:27:24.180Z,21.16
2019-05-26T08:29:57.135Z,21.19
2019-05-26T08:32:29.660Z,21.30
2019-05-26T08:35:02.176Z,21.42
2019-05-26T08:37:35.651Z,21.47
2019-05-26T08:40:21.196Z,21.60
2019-05-26T08:42:54.351Z,21.81
2019-05-26T08:45:27.010Z,21.94
2019-05-26T08:47:59.615Z,22.09
2019-05-26T08:50:34.481Z,22.23
2019-05-26T08:53:06.526Z,22.39
2019-05-26T08:55:39.310Z,22.50
2019-05-26T08:58:11.976Z,22.64
2019-05-26T09:00:44.440Z,22.74
2019-05-26T09:03:17.115Z,22.85
2019-05-26T09:05:50.210Z,22.93
2019-05-26T09:08:22.547Z,23.05
2019-05-26T09:10:55.205Z,23.15
2019-05-26T09:13:27.965Z,23.18
2019-05-26T09:16:00.460Z,23.28
2019-05-26T09:18:33.008Z,23.38
2019-05-26T09:21:05.775Z,23.42
2019-05-26T09:23:38.355Z,23.48
2019-05-26T09:26:11.070Z,23.52
2019-05-26T09:28:45.056Z,23.63
2019-05-26T09:31:17.781Z,23.67
2019-05-26T09:33:50.403Z,23.70
2019-05-26T09:36:22.960Z,23.66
2019-05-26T09:38:55.405Z,23.59
2019-05-26T09:41:28.010Z,23.56
2019-05-26T09:44:00.570Z,23.56
2019-05-26T09:46:33.037Z,23.54
2019-05-26T09:49:05.772Z,23.59
2019-05-26T09:51:38.412Z,23.61
2019-05-26T09:54:12.705Z,23.61
2019-05-26T09:56:45.130Z,23.67
2019-05-26T09:59:17.801Z,23.73
2019-05-26T10:01:50.179Z,23.83
2019-05-26T10:04:22.970Z,23.87
2019-05-26T10:06:55.675Z,23.90
2019-05-26T10:09:28.421Z,23.86
2019-05-26T10:12:00.870Z,23.90
2019-05-26T10:14:33.800Z,23.98
2019-05-26T10:17:06.470Z,24.05
2019-05-26T10:19:39.236Z,24.11
2019-05-26T10:22:11.892Z,24.14
2019-05-26T10:24:44.506Z,24.18
2019-05-26T10:27:17.385Z,24.19
2019-05-26T10:29:50.095Z,24.15
2019-05-26T10:32:22.715Z,24.21
2019-05-26T10:34:55.160Z,24.24
2019-05-26T10:37:29.645Z,24.29
2019-05-26T10:40:02.414Z,24.35
2019-05-26T10:42:36.630Z,24.39
2019-05-26T10:45:11.562Z,24.45
2019-05-26T10:47:44.261Z,24.52
2019-05-26T10:50:18.335Z,24.56
2019-05-26T10:52:51.125Z,24.66
2019-05-26T10:55:23.422Z,24.74
2019-05-26T10:57:56.309Z,24.83
2019-05-26T11:00:32.814Z,24.86
2019-05-26T11:03:04.209Z,24.83
2019-05-26T11:05:36.596Z,24.86
2019-05-26T11:08:09.350Z,24.91
2019-05-26T11:10:41.740Z,24.99
2019-05-26T11:13:14.576Z,25.06
2019-05-26T11:15:47.836Z,25.13
2019-05-26T11:18:20.599Z,25.14
2019-05-26T11:20:53.281Z,25.22
2019-05-26T11:23:25.830Z,25.29
2019-05-26T11:25:59.469Z,25.29
2019-05-26T11:28:32.126Z,25.34
2019-05-26T11:31:04.741Z,25.38
2019-05-26T11:33:37.586Z,25.37
2019-05-26T11:36:09.975Z,25.42
2019-05-26T11:38:42.590Z,25.44
2019-05-26T11:41:15.766Z,25.49
2019-05-26T11:43:48.476Z,25.61
2019-05-26T11:46:21.187Z,25.66
2019-05-26T11:48:53.875Z,25.73
2019-05-26T11:51:26.458Z,25.70
2019-05-26T11:53:58.962Z,25.65
2019-05-26T11:56:31.496Z,25.66
2019-05-26T11:59:04.366Z,25.69
2019-05-26T12:01:37.214Z,25.68
2019-05-26T12:04:10.006Z,25.66
2019-05-26T12:06:42.427Z,25.64
2019-05-26T12:09:15.072Z,25.61
2019-05-26T12:11:47.610Z,25.64
2019-05-26T12:14:33.655Z,25.70
2019-05-26T12:16:54.490Z,25.82
2019-05-26T12:19:26.975Z,25.92
2019-05-26T12:21:59.455Z,26.04
2019-05-26T12:24:31.982Z,26.17
2019-05-26T12:27:04.555Z,26.30
2019-05-26T12:29:37.040Z,26.38
2019-05-26T12:32:09.585Z,26.44
2019-05-26T12:34:43.445Z,26.48
2019-05-26T12:37:16.134Z,26.47
2019-05-26T12:39:48.858Z,26.48
2019-05-26T12:42:21.410Z,26.54
2019-05-26T12:44:54.110Z,26.58
2019-05-26T12:47:26.635Z,26.61
2019-05-26T12:49:59.489Z,26.68
2019-05-26T12:52:32.130Z,26.69
2019-05-26T12:55:09.513Z,26.73
2019-05-26T12:57:40.792Z,26.79
2019-05-26T13:00:14.536Z,26.82
2019-05-26T13:02:47.867Z,26.78
2019-05-26T13:05:21.975Z,26.75
2019-05-26T13:07:54.555Z,26.75
2019-05-26T13:10:27.405Z,26.72
2019-05-26T13:12:59.905Z,26.69
2019-05-26T13:15:32.675Z,26.66
2019-05-26T13:18:05.281Z,26.63
2019-05-26T13:20:37.750Z,26.63
2019-05-26T13:23:10.335Z,26.59
2019-05-26T13:25:42.860Z,26.56
2019-05-26T13:28:15.422Z,26.56
2019-05-26T13:30:48.040Z,26.59
2019-05-26T13:33:20.648Z,26.58
2019-05-26T13:35:53.159Z,26.58
2019-05-26T13:38:25.695Z,26.51
2019-05-26T13:40:58.270Z,26.45
2019-05-26T13:43:30.972Z,26.37
2019-05-26T13:46:03.505Z,26.32
2019-05-26T13:48:36.167Z,26.31
2019-05-26T13:51:08.805Z,26.24
2019-05-26T13:53:41.480Z,26.21
2019-05-26T13:56:15.105Z,26.19
2019-05-26T13:58:47.630Z,26.16
2019-05-26T14:01:20.085Z,26.14
2019-05-26T14:03:52.686Z,26.11
2019-05-26T14:06:25.220Z,26.08
2019-05-26T14:08:57.965Z,26.03
2019-05-26T14:11:30.475Z,26.05
2019-05-26T14:14:04.800Z,26.03
2019-05-26T14:16:38.243Z,26.01
2019-05-26T14:19:10.835Z,26.00
2019-05-26T14:21:44.555Z,25.99
2019-05-26T14:24:17.413Z,25.94
2019-05-26T14:26:50.019Z,25.92
2019-05-26T14:29:22.905Z,25.89
2019-05-26T14:31:55.521Z,25.82
2019-05-26T14:34:28.212Z,25.76
2019-05-26T14:37:00.973Z,25.70
2019-05-26T14:39:34.141Z,25.66
2019-05-26T14:42:06.850Z,25.61
2019-05-26T14:44:39.320Z,25.55
2019-05-26T14:47:11.888Z,25.45
2019-05-26T14:49:44.450Z,25.38
2019-05-26T14:52:16.933Z,25.27
2019-05-26T14:54:49.841Z,25.11
2019-05-26T14:57:22.475Z,25.01
2019-05-26T14:59:55.008Z,24.90
2019-05-26T15:02:27.721Z,24.79
2019-05-26T15:05:00.156Z,24.70
2019-05-26T15:07:32.685Z,24.62
2019-05-26T15:10:08.775Z,24.58
2019-05-26T15:12:41.460Z,24.53
2019-05-26T15:15:14.466Z,24.48
2019-05-26T15:17:47.086Z,24.42
2019-05-26T15:20:20.174Z,24.39
2019-05-26T15:22:52.980Z,24.28
2019-05-26T15:25:25.631Z,24.19
2019-05-26T15:27:58.012Z,24.14
2019-05-26T15:30:30.510Z,24.08
2019-05-26T15:33:02.978Z,23.97
2019-05-26T15:35:35.335Z,23.94
2019-05-26T15:38:07.915Z,23.91
2019-05-26T15:40:40.326Z,23.87
2019-05-26T15:43:12.873Z,23.84
2019-05-26T15:45:45.490Z,23.83
2019-05-26T15:48:18.112Z,23.83
2019-05-26T15:50:52.065Z,23.83
2019-05-26T15:53:24.597Z,23.86
2019-05-26T15:55:57.170Z,23.83
2019-05-26T15:58:29.975Z,23.77
2019-05-26T16:01:02.400Z,23.76
2019-05-26T16:03:35.160Z,23.70
2019-05-26T16:06:07.890Z,23.64
2019-05-26T16:08:41.624Z,23.59
2019-05-26T16:11:14.586Z,23.56
2019-05-26T16:13:47.367Z,23.48
2019-05-26T16:16:19.927Z,23.46
2019-05-26T16:18:52.570Z,23.46
2019-05-26T16:21:28.373Z,23.39
2019-05-26T16:23:59.420Z,23.38
2019-05-26T16:26:32.050Z,23.33
2019-05-26T16:29:05.570Z,23.28
2019-05-26T16:31:38.072Z,23.28
2019-05-26T16:34:10.750Z,23.23
2019-05-26T16:36:43.468Z,23.21
2019-05-26T16:39:17.010Z,23.18
2019-05-26T16:41:49.526Z,23.15
2019-05-26T16:44:22.173Z,23.10
2019-05-26T16:46:56.822Z,23.06
2019-05-26T16:49:29.185Z,23.04
2019-05-26T16:52:02.805Z,22.99
2019-05-26T16:54:35.760Z,22.99
2019-05-26T16:57:08.501Z,22.97
2019-05-26T16:59:41.031Z,22.93
2019-05-26T17:02:13.970Z,22.91
2019-05-26T17:04:46.682Z,22.88
2019-05-26T17:07:19.172Z,22.84
2019-05-26T17:09:51.736Z,22.83
2019-05-26T17:12:24.490Z,22.80
2019-05-26T17:14:57.600Z,22.77
2019-05-26T17:17:30.181Z,22.73
2019-05-26T17:20:03.294Z,22.70
2019-05-26T17:22:37.460Z,22.67
2019-05-26T17:25:10.450Z,22.62
2019-05-26T17:27:43.176Z,22.62
2019-05-26T17:30:16.246Z,22.59
2019-05-26T17:32:48.795Z,22.56
2019-05-26T17:35:21.535Z,22.47
2019-05-26T17:37:55.551Z,22.42
2019-05-26T17:40:28.120Z,22.33
2019-05-26T17:43:00.636Z,22.25
2019-05-26T17:45:33.530Z,22.19
2019-05-26T17:48:06.091Z,22.08
2019-05-26T17:50:38.605Z,21.98
2019-05-26T17:53:11.015Z,21.91
2019-05-26T17:55:43.865Z,21.81
2019-05-26T17:58:16.376Z,21.71
2019-05-26T18:00:49.020Z,21.60
2019-05-26T18:03:21.710Z,21.53
2019-05-26T18:05:54.137Z,21.40
2019-05-26T18:08:27.797Z,21.32
2019-05-26T18:11:00.351Z,21.20
2019-05-26T18:13:32.839Z,21.10
2019-05-26T18:16:05.490Z,21.03
2019-05-26T18:18:38.139Z,20.94
2019-05-26T18:21:12.111Z,20.85
2019-05-26T18:23:44.722Z,20.77
2019-05-26T18:26:17.181Z,20.68
2019-05-26T18:28:50.031Z,20.61
2019-05-26T18:31:22.564Z,20.55
2019-05-26T18:33:55.371Z,20.47
2019-05-26T18:36:28.290Z,20.41
2019-05-26T18:39:01.205Z,20.31
2019-05-26T18:41:34.760Z,20.24
2019-05-26T18:44:07.686Z,20.13
2019-05-26T18:46:40.268Z,20.08
2019-05-26T18:49:13.834Z,20.02
2019-05-26T18:51:46.372Z,19.93
2019-05-26T18:54:19.065Z,19.84
2019-05-26T18:56:51.586Z,19.79
2019-05-26T18:59:24.185Z,19.72
2019-05-26T19:01:56.710Z,19.66
2019-05-26T19:04:29.310Z,19.60
2019-05-26T19:07:01.875Z,19.53
2019-05-26T19:09:34.760Z,19.50
2019-05-26T19:12:07.516Z,19.43
2019-05-26T19:14:40.672Z,19.38
2019-05-26T19:17:13.271Z,19.31
2019-05-26T19:19:46.010Z,19.27
2019-05-26T19:22:19.094Z,19.23
2019-05-26T19:24:51.795Z,19.22
2019-05-26T19:27:24.425Z,19.14
2019-05-26T19:29:57.246Z,19.10
2019-05-26T19:32:30.123Z,19.07
2019-05-26T19:35:03.055Z,19.02
2019-05-26T19:37:35.765Z,18.98
2019-05-26T19:40:11.017Z,18.96
2019-05-26T19:42:43.960Z,18.92
2019-05-26T19:45:16.998Z,18.88
2019-05-26T19:47:49.761Z,18.82
2019-05-26T19:50:22.306Z,18.79
2019-05-26T19:52:54.756Z,18.75
2019-05-26T19:55:27.450Z,18.74
2019-05-26T19:58:00.390Z,18.68
2019-05-26T20:00:33.122Z,18.65
2019-05-26T20:03:06.560Z,18.62
2019-05-26T20:05:39.281Z,18.58
2019-05-26T20:08:13.125Z,18.57
2019-05-26T20:10:45.965Z,18.51
2019-05-26T20:13:18.485Z,18.51
2019-05-26T20:15:51.311Z,18.47
2019-05-26T20:18:23.846Z,18.43
2019-05-26T20:20:56.675Z,18.41
2019-05-26T20:23:29.498Z,18.35
2019-05-26T20:26:02.050Z,18.33
2019-05-26T20:28:35.865Z,18.30
2019-05-26T20:31:08.425Z,18.25
2019-05-26T20:33:41.012Z,18.25
2019-05-26T20:36:13.596Z,18.21
2019-05-26T20:38:46.175Z,18.21
2019-05-26T20:41:18.770Z,18.17
2019-05-26T20:43:51.630Z,18.14
2019-05-26T20:46:24.483Z,18.13
2019-05-26T20:48:57.100Z,18.13
2019-05-26T20:51:29.840Z,18.09
2019-05-26T20:54:02.254Z,18.06
2019-05-26T20:56:34.815Z,18.02
2019-05-26T20:59:07.305Z,18.02
2019-05-26T21:01:40.046Z,18.02
2019-05-26T21:04:12.745Z,17.95
2019-05-26T21:06:45.670Z,17.92
2019-05-26T21:09:18.561Z,17.90
2019-05-26T21:11:51.425Z,17.88
2019-05-26T21:14:25.221Z,17.82
2019-05-26T21:16:57.960Z,17.81
2019-05-26T21:19:31.800Z,17.74
2019-05-26T21:22:04.621Z,17.68
2019-05-26T21:24:37.101Z,17.61
2019-05-26T21:27:09.646Z,17.55
2019-05-26T21:29:42.231Z,17.47
2019-05-26T21:32:14.922Z,17.42
2019-05-26T21:34:47.182Z,17.34
2019-05-26T21:37:20.040Z,17.30
2019-05-26T21:39:52.420Z,17.23
2019-05-26T21:42:24.890Z,17.16
2019-05-26T21:44:57.574Z,17.10
2019-05-26T21:47:30.186Z,17.00
2019-05-26T21:50:02.743Z,16.91
2019-05-26T21:52:35.514Z,16.85
2019-05-26T21:55:08.485Z,16.78
2019-05-26T21:57:41.071Z,16.71
2019-05-26T22:00:15.932Z,16.65
2019-05-26T22:02:51.306Z,16.56
2019-05-26T22:05:23.880Z,16.50
2019-05-26T22:07:56.257Z,16.44
2019-05-26T22:10:28.805Z,16.37
2019-05-26T22:13:01.329Z,16.30
2019-05-26T22:15:34.130Z,16.23
2019-05-26T22:18:07.010Z,16.16
2019-05-26T22:20:39.365Z,16.10
2019-05-26T22:23:12.270Z,16.05
2019-05-26T22:25:45.015Z,15.94
2019-05-26T22:28:17.591Z,15.90
2019-05-26T22:30:49.975Z,15.82
2019-05-26T22:33:22.450Z,15.79
2019-05-26T22:35:55.061Z,15.72
2019-05-26T22:38:27.807Z,15.66
2019-05-26T22:41:01.526Z,15.57
2019-05-26T22:43:34.001Z,16.88
2019-05-26T22:46:06.396Z,19.10
2019-05-26T22:48:38.835Z,20.54
2019-05-26T22:51:11.650Z,20.81
2019-05-26T22:53:43.992Z,20.27
2019-05-26T22:56:16.751Z,19.82
2019-05-26T22:58:49.476Z,19.47
2019-05-26T23:01:21.993Z,19.14
2019-05-26T23:03:54.625Z,18.79
2019-05-26T23:06:27.793Z,18.48
2019-05-26T23:09:00.093Z,18.21
2019-05-26T23:11:33.970Z,17.93
2019-05-26T23:14:07.902Z,17.67
2019-05-26T23:16:41.755Z,17.42
2019-05-26T23:19:19.472Z,17.20
2019-05-26T23:21:50.111Z,16.95
2019-05-26T23:24:23.825Z,16.75
2019-05-26T23:26:57.810Z,16.56
2019-05-26T23:29:31.665Z,16.40
2019-05-26T23:32:05.710Z,16.19
2019-05-26T23:34:39.477Z,16.03
2019-05-26T23:37:13.340Z,15.92
2019-05-26T23:39:47.095Z,15.73
2019-05-26T23:42:20.920Z,15.61
2019-05-26T23:44:53.326Z,15.48
2019-05-26T23:47:25.761Z,15.37
2019-05-26T23:49:58.131Z,16.61
2019-05-26T23:52:30.830Z,18.65
2019-05-26T23:55:04.400Z,19.22
2019-05-26T23:57:36.797Z,18.74
